createdAt,value
2023-10-20T00:01:57.070Z,90.47
2023-10-20T00:04:25.372Z,90.07
2023-10-20T00:06:52.115Z,90.85
2023-10-20T00:09:19.391Z,90.35
2023-10-20T00:11:46.466Z,90.65
2023-10-20T00:14:13.250Z,90.28
2023-10-20T00:16:40.339Z,89.81
2023-10-20T00:19:10.042Z,90.34
2023-10-20T00:21:36.923Z,90.68
2023-10-20T00:24:03.946Z,90.94
2023-10-20T00:26:30.714Z,90.71
2023-10-20T00:28:57.590Z,90.71
2023-10-20T00:31:24.901Z,91.29
2023-10-20T00:33:51.763Z,91.36
2023-10-20T00:36:18.705Z,91.19
2023-10-20T00:38:45.566Z,91.13
2023-10-20T00:41:12.552Z,91.54
2023-10-20T00:43:39.744Z,91.62
2023-10-20T00:46:11.559Z,91.81
2023-10-20T00:48:39.117Z,91.99
2023-10-20T00:51:08.830Z,92.25
2023-10-20T00:53:36.924Z,93.23
2023-10-20T00:56:07.637Z,93.25
2023-10-20T00:58:34.705Z,93.15
2023-10-20T01:01:05.287Z,93.40
2023-10-20T01:03:34.899Z,93.26
2023-10-20T01:06:05.531Z,92.95
2023-10-20T01:08:32.311Z,92.51
2023-10-20T01:10:59.080Z,92.77
2023-10-20T01:13:26.438Z,92.72
2023-10-20T01:15:53.319Z,92.58
2023-10-20T01:18:20.330Z,92.70
2023-10-20T01:20:47.091Z,92.95
2023-10-20T01:23:13.921Z,93.19
2023-10-20T01:25:40.773Z,92.89
2023-10-20T01:28:07.472Z,92.80
2023-10-20T01:30:34.304Z,92.86
2023-10-20T01:33:01.154Z,93.21
2023-10-20T01:35:27.973Z,93.65
2023-10-20T01:37:54.702Z,93.82
2023-10-20T01:40:23.077Z,93.97
2023-10-20T01:42:49.814Z,94.42
2023-10-20T01:45:16.608Z,94.31
2023-10-20T01:47:43.377Z,94.44
2023-10-20T01:50:10.492Z,95.12
2023-10-20T01:52:37.269Z,94.81
2023-10-20T01:55:04.447Z,94.74
2023-10-20T01:57:31.146Z,94.33
2023-10-20T01:59:57.835Z,94.33
2023-10-20T02:02:24.656Z,95.04
2023-10-20T02:04:51.482Z,95.04
2023-10-20T02:07:18.905Z,95.34
2023-10-20T02:09:45.851Z,96.37
2023-10-20T02:12:12.598Z,95.90
2023-10-20T02:14:39.343Z,96.32
2023-10-20T02:17:06.652Z,95.99
2023-10-20T02:19:33.461Z,95.61
2023-10-20T02:22:02.996Z,95.52
2023-10-20T02:24:31.141Z,95.77
2023-10-20T02:26:58.973Z,96.00
2023-10-20T02:29:25.934Z,96.39
2023-10-20T02:31:52.854Z,96.43
2023-10-20T02:34:19.648Z,96.39
2023-10-20T02:36:49.181Z,97.08
2023-10-20T02:39:16.152Z,97.02
2023-10-20T02:41:42.943Z,97.43
2023-10-20T02:44:09.755Z,97.51
2023-10-20T02:46:36.470Z,97.42
2023-10-20T02:49:03.223Z,97.12
2023-10-20T02:51:29.882Z,97.52
2023-10-20T02:53:56.571Z,97.71
2023-10-20T02:56:24.847Z,97.98
2023-10-20T02:58:51.670Z,97.98
2023-10-20T03:01:20.030Z,97.98
2023-10-20T03:03:47.302Z,97.46
2023-10-20T03:06:14.558Z,97.90
2023-10-20T03:08:41.773Z,98.18
2023-10-20T03:11:10.324Z,98.49
2023-10-20T03:13:39.632Z,98.49
2023-10-20T03:16:07.119Z,97.99
2023-10-20T03:18:33.822Z,98.23
2023-10-20T03:21:02.914Z,98.28
2023-10-20T03:23:30.325Z,98.29
2023-10-20T03:25:57.127Z,98.07
2023-10-20T03:28:24.209Z,98.47
2023-10-20T03:30:52.816Z,99.03
2023-10-20T03:33:19.979Z,99.08
2023-10-20T03:35:47.433Z,98.67
2023-10-20T03:38:15.756Z,99.18
2023-10-20T03:40:43.498Z,99.28
2023-10-20T03:43:11.832Z,99.19
2023-10-20T03:45:43.449Z,99.01
2023-10-20T03:48:11.039Z,99.23
2023-10-20T03:50:43.326Z,99.38
2023-10-20T03:53:13.393Z,99.63
2023-10-20T03:55:40.163Z,99.61
2023-10-20T03:58:06.922Z,99.48
2023-10-20T04:00:38.032Z,99.47
2023-10-20T04:03:04.936Z,99.17
2023-10-20T04:05:32.934Z,99.57
2023-10-20T04:07:59.865Z,99.46
2023-10-20T04:10:26.738Z,99.51
2023-10-20T04:12:53.661Z,99.52
2023-10-20T04:15:27.467Z,99.74
2023-10-20T04:17:54.561Z,100.00
2023-10-20T04:20:22.716Z,100.00
2023-10-20T04:22:52.787Z,100.00
2023-10-20T04:25:21.245Z,100.00
2023-10-20T04:28:07.161Z,100.00
2023-10-20T04:30:55.171Z,100.00
2023-10-20T04:33:40.824Z,100.00
2023-10-20T04:36:26.583Z,100.00
2023-10-20T04:39:11.771Z,100.00
2023-10-20T04:41:57.026Z,100.00
2023-10-20T04:44:24.731Z,100.00
2023-10-20T04:46:53.873Z,100.00
2023-10-20T04:49:55.515Z,100.00
2023-10-20T04:52:40.565Z,100.00
2023-10-20T04:55:13.183Z,100.00
2023-10-20T04:57:45.733Z,100.00
2023-10-20T05:00:13.934Z,100.00
2023-10-20T05:02:51.870Z,100.00
2023-10-20T05:05:42.886Z,100.00
2023-10-20T05:08:12.468Z,100.00
2023-10-20T05:10:42.027Z,100.00
2023-10-20T05:13:09.929Z,100.00
2023-10-20T05:15:44.732Z,100.00
2023-10-20T05:18:16.211Z,100.00
2023-10-20T05:20:44.346Z,100.00
2023-10-20T05:23:16.282Z,100.00
2023-10-20T05:25:49.818Z,100.00
2023-10-20T05:28:17.894Z,100.00
2023-10-20T05:30:46.357Z,100.00
2023-10-20T05:33:14.125Z,100.00
2023-10-20T05:35:42.072Z,100.00
2023-10-20T05:38:09.511Z,100.00
2023-10-20T05:40:37.636Z,100.00
2023-10-20T05:43:06.905Z,100.00
2023-10-20T05:45:41.607Z,100.00
2023-10-20T05:48:09.743Z,100.00
2023-10-20T05:50:39.447Z,100.00
2023-10-20T05:53:07.194Z,100.00
2023-10-20T05:55:34.510Z,99.89
2023-10-20T05:58:01.954Z,99.96
2023-10-20T06:00:28.844Z,99.61
2023-10-20T06:02:56.509Z,98.22
2023-10-20T06:05:23.702Z,97.84
2023-10-20T06:07:50.649Z,97.63
2023-10-20T06:10:24.416Z,97.37
2023-10-20T06:12:52.404Z,96.87
2023-10-20T06:15:21.063Z,97.21
2023-10-20T06:17:49.380Z,96.35
2023-10-20T06:20:16.635Z,95.98
2023-10-20T06:22:43.789Z,94.58
2023-10-20T06:25:13.620Z,94.09
2023-10-20T06:27:41.961Z,93.63
2023-10-20T06:30:15.847Z,93.91
2023-10-20T06:32:46.515Z,93.49
2023-10-20T06:35:14.535Z,92.25
2023-10-20T06:38:02.359Z,91.75
2023-10-20T06:40:29.105Z,91.18
2023-10-20T06:42:55.825Z,91.38
2023-10-20T06:45:22.542Z,91.39
2023-10-20T06:47:49.414Z,91.15
2023-10-20T06:50:16.192Z,90.30
2023-10-20T06:52:43.038Z,89.79
2023-10-20T06:55:42.649Z,89.05
2023-10-20T06:57:58.784Z,88.37
2023-10-20T07:00:25.538Z,87.90
2023-10-20T07:02:52.280Z,87.93
2023-10-20T07:05:21.711Z,87.48
2023-10-20T07:07:49.921Z,86.99
2023-10-20T07:10:19.312Z,86.78
2023-10-20T07:12:46.058Z,86.04
2023-10-20T07:15:14.263Z,85.70
2023-10-20T07:17:41.006Z,85.37
2023-10-20T07:20:08.871Z,84.45
2023-10-20T07:22:35.691Z,85.07
2023-10-20T07:25:02.560Z,83.21
2023-10-20T07:27:29.399Z,82.22
2023-10-20T07:29:56.376Z,82.62
2023-10-20T07:32:23.395Z,81.94
2023-10-20T07:34:52.517Z,81.98
2023-10-20T07:37:19.589Z,80.80
2023-10-20T07:39:46.334Z,80.73
2023-10-20T07:42:13.137Z,81.40
2023-10-20T07:44:41.462Z,80.35
2023-10-20T07:47:08.242Z,78.63
2023-10-20T07:49:34.955Z,79.58
2023-10-20T07:52:03.362Z,79.63
2023-10-20T07:54:31.281Z,78.94
2023-10-20T07:56:59.900Z,76.70
2023-10-20T07:59:27.095Z,76.22
2023-10-20T08:01:53.798Z,77.05
2023-10-20T08:04:20.831Z,77.17
2023-10-20T08:06:49.405Z,76.30
2023-10-20T08:09:16.332Z,75.97
2023-10-20T08:11:44.452Z,76.73
2023-10-20T08:14:11.349Z,75.88
2023-10-20T08:16:38.118Z,78.08
2023-10-20T08:19:04.965Z,75.70
2023-10-20T08:21:31.965Z,74.53
2023-10-20T08:24:01.477Z,76.12
2023-10-20T08:26:28.349Z,76.89
2023-10-20T08:28:55.119Z,75.07
2023-10-20T08:31:23.400Z,74.23
2023-10-20T08:33:53.082Z,72.17
2023-10-20T08:36:22.858Z,72.08
2023-10-20T08:38:53.662Z,74.02
2023-10-20T08:41:24.044Z,71.72
2023-10-20T08:43:51.348Z,73.47
2023-10-20T08:46:19.161Z,72.52
2023-10-20T08:48:47.677Z,71.93
2023-10-20T08:51:17.707Z,70.62
2023-10-20T08:53:46.289Z,69.85
2023-10-20T08:56:13.884Z,69.09
2023-10-20T08:58:40.966Z,68.47
2023-10-20T09:01:07.818Z,68.00
2023-10-20T09:04:02.321Z,68.21
2023-10-20T09:06:29.212Z,68.66
2023-10-20T09:08:58.666Z,66.94
2023-10-20T09:11:34.596Z,66.62
2023-10-20T09:14:02.421Z,65.98
2023-10-20T09:16:29.414Z,64.84
2023-10-20T09:18:56.394Z,64.81
2023-10-20T09:21:29.995Z,64.56
2023-10-20T09:23:57.957Z,64.63
2023-10-20T09:26:29.262Z,62.05
2023-10-20T09:28:58.031Z,61.69
2023-10-20T09:31:28.678Z,61.33
2023-10-20T09:33:56.063Z,61.31
2023-10-20T09:36:26.412Z,60.39
2023-10-20T09:38:55.609Z,60.06
2023-10-20T09:41:30.719Z,59.42
2023-10-20T09:44:10.121Z,59.05
2023-10-20T09:46:57.547Z,57.90
2023-10-20T09:49:27.801Z,56.57
2023-10-20T09:51:56.842Z,55.31
2023-10-20T09:54:30.862Z,55.95
2023-10-20T09:57:00.875Z,55.94
2023-10-20T09:59:29.163Z,55.62
2023-10-20T10:01:57.841Z,54.92
2023-10-20T10:04:30.504Z,54.39
2023-10-20T10:07:05.176Z,54.23
2023-10-20T10:09:50.725Z,53.76
2023-10-20T10:12:21.972Z,53.32
2023-10-20T10:14:59.512Z,52.78
2023-10-20T10:17:29.899Z,52.92
2023-10-20T10:19:57.816Z,53.35
2023-10-20T10:22:29.513Z,51.82
2023-10-20T10:25:02.430Z,50.92
2023-10-20T10:27:31.057Z,51.73
2023-10-20T10:30:01.497Z,50.30
2023-10-20T10:32:33.890Z,49.77
2023-10-20T10:35:02.984Z,51.25
2023-10-20T10:37:37.236Z,50.42
2023-10-20T10:40:15.573Z,49.58
2023-10-20T10:42:47.610Z,49.55
2023-10-20T10:45:17.825Z,48.06
2023-10-20T10:47:45.075Z,47.07
2023-10-20T10:50:11.874Z,45.66
2023-10-20T10:52:38.690Z,45.79
2023-10-20T10:55:05.684Z,45.26
2023-10-20T10:57:32.549Z,44.90
2023-10-20T11:00:01.901Z,45.59
2023-10-20T11:02:29.595Z,45.03
2023-10-20T11:04:56.505Z,43.32
2023-10-20T11:07:23.865Z,41.26
2023-10-20T11:09:52.581Z,41.08
2023-10-20T11:12:21.800Z,39.13
2023-10-20T11:14:48.826Z,37.80
2023-10-20T11:17:16.336Z,34.60
2023-10-20T11:19:43.975Z,31.10
2023-10-20T11:22:19.879Z,28.68
2023-10-20T11:24:53.999Z,28.57
2023-10-20T11:27:21.156Z,27.42
2023-10-20T11:29:58.553Z,25.88
2023-10-20T11:32:27.243Z,25.70
2023-10-20T11:34:54.323Z,24.29
2023-10-20T11:37:21.082Z,25.04
2023-10-20T11:39:48.335Z,24.04
2023-10-20T11:42:15.275Z,24.33
2023-10-20T11:44:42.191Z,23.53
2023-10-20T11:47:09.006Z,22.41
2023-10-20T11:49:35.757Z,23.52
2023-10-20T11:52:03.822Z,23.34
2023-10-20T11:54:33.463Z,22.08
2023-10-20T11:57:00.395Z,22.17
2023-10-20T11:59:27.244Z,23.12
2023-10-20T12:01:54.029Z,22.50
2023-10-20T12:04:20.943Z,21.54
2023-10-20T12:06:48.005Z,21.69
2023-10-20T12:09:17.962Z,20.91
2023-10-20T12:11:46.620Z,21.34
2023-10-20T12:14:15.419Z,22.90
2023-10-20T12:16:43.643Z,21.51
2023-10-20T12:19:10.523Z,22.06
2023-10-20T12:21:37.254Z,22.32
2023-10-20T12:24:04.568Z,22.08
2023-10-20T12:26:31.343Z,21.49
2023-10-20T12:28:58.328Z,21.31
2023-10-20T12:31:25.981Z,21.08
2023-10-20T12:33:53.181Z,20.40
2023-10-20T12:36:19.962Z,21.75
2023-10-20T12:38:47.328Z,21.25
2023-10-20T12:41:15.127Z,21.41
2023-10-20T12:43:43.105Z,22.88
2023-10-20T12:46:12.935Z,22.64
2023-10-20T12:48:40.711Z,21.97
2023-10-20T12:51:12.090Z,21.78
2023-10-20T12:53:39.503Z,22.00
2023-10-20T12:56:07.166Z,23.26
2023-10-20T12:58:36.745Z,23.44
2023-10-20T13:01:03.755Z,21.92
2023-10-20T13:03:30.909Z,21.57
2023-10-20T13:05:58.321Z,23.57
2023-10-20T13:08:27.956Z,23.39
2023-10-20T13:10:54.619Z,23.71
2023-10-20T13:13:21.594Z,25.26
2023-10-20T13:15:48.344Z,24.92
2023-10-20T13:18:17.098Z,27.52
2023-10-20T13:20:46.766Z,31.21
2023-10-20T13:23:14.061Z,34.01
2023-10-20T13:25:40.802Z,35.67
2023-10-20T13:28:07.897Z,37.73
2023-10-20T13:30:35.033Z,38.65
2023-10-20T13:33:05.660Z,39.62
2023-10-20T13:35:37.998Z,40.37
2023-10-20T13:38:17.643Z,41.42
2023-10-20T13:40:44.633Z,41.75
2023-10-20T13:43:11.276Z,43.25
2023-10-20T13:45:39.117Z,43.20
2023-10-20T13:48:07.291Z,44.03
2023-10-20T13:50:34.478Z,45.13
2023-10-20T13:53:01.293Z,44.01
2023-10-20T13:55:29.432Z,44.81
2023-10-20T13:57:56.353Z,45.27
2023-10-20T14:00:24.020Z,45.66
2023-10-20T14:02:51.635Z,45.69
2023-10-20T14:05:21.472Z,45.97
2023-10-20T14:07:49.348Z,48.29
2023-10-20T14:10:16.437Z,48.65
2023-10-20T14:12:43.266Z,49.22
2023-10-20T14:15:10.611Z,49.80
2023-10-20T14:17:37.530Z,48.85
2023-10-20T14:20:04.850Z,49.70
2023-10-20T14:22:31.712Z,49.21
2023-10-20T14:24:58.514Z,50.16
2023-10-20T14:27:25.190Z,51.26
2023-10-20T14:29:51.883Z,51.22
2023-10-20T14:32:18.799Z,52.17
2023-10-20T14:34:45.511Z,51.86
2023-10-20T14:37:12.279Z,51.85
2023-10-20T14:39:40.764Z,52.37
2023-10-20T14:42:07.515Z,53.19
2023-10-20T14:44:34.223Z,53.79
2023-10-20T14:47:00.949Z,53.81
2023-10-20T14:49:27.816Z,55.68
2023-10-20T14:51:54.470Z,56.60
2023-10-20T14:54:21.307Z,58.38
2023-10-20T14:56:49.630Z,58.95
2023-10-20T14:59:16.454Z,59.55
2023-10-20T15:01:43.245Z,60.59
2023-10-20T15:04:22.220Z,60.61
2023-10-20T15:06:55.491Z,61.58
2023-10-20T15:09:22.376Z,61.64
2023-10-20T15:11:49.161Z,61.95
2023-10-20T15:14:17.467Z,61.41
2023-10-20T15:16:44.139Z,61.80
2023-10-20T15:19:10.924Z,62.96
2023-10-20T15:21:37.671Z,63.45
2023-10-20T15:24:05.475Z,63.38
2023-10-20T15:26:32.285Z,64.57
2023-10-20T15:28:58.994Z,64.92
2023-10-20T15:31:25.744Z,65.06
2023-10-20T15:33:52.872Z,65.30
2023-10-20T15:36:19.777Z,65.69
2023-10-20T15:38:49.704Z,65.83
2023-10-20T15:41:19.679Z,66.83
2023-10-20T15:43:46.759Z,67.04
2023-10-20T15:46:14.021Z,67.30
2023-10-20T15:48:41.142Z,68.19
2023-10-20T15:51:09.228Z,68.31
2023-10-20T15:53:36.394Z,69.37
2023-10-20T15:56:03.272Z,69.73
2023-10-20T15:58:30.082Z,70.15
2023-10-20T16:01:01.307Z,70.57
2023-10-20T16:03:29.774Z,71.20
2023-10-20T16:05:56.781Z,70.72
2023-10-20T16:08:23.962Z,70.82
2023-10-20T16:10:50.727Z,70.71
2023-10-20T16:13:17.389Z,70.73
2023-10-20T16:15:44.329Z,70.80
2023-10-20T16:18:11.924Z,71.52
2023-10-20T16:20:39.585Z,72.55
2023-10-20T16:23:06.425Z,73.19
2023-10-20T16:25:33.231Z,73.13
2023-10-20T16:27:59.994Z,73.40
2023-10-20T16:30:26.803Z,73.56
2023-10-20T16:32:53.545Z,73.38
2023-10-20T16:35:20.331Z,73.55
2023-10-20T16:37:47.111Z,74.20
2023-10-20T16:40:15.766Z,74.26
2023-10-20T16:42:42.508Z,74.39
2023-10-20T16:45:11.402Z,74.58
2023-10-20T16:47:39.621Z,74.81
2023-10-20T16:50:07.347Z,75.46
2023-10-20T16:52:35.702Z,75.52
2023-10-20T16:55:02.537Z,75.83
2023-10-20T16:57:29.433Z,75.66
2023-10-20T16:59:56.170Z,76.42
2023-10-20T17:02:23.033Z,76.88
2023-10-20T17:04:49.719Z,76.68
2023-10-20T17:07:17.022Z,76.72
2023-10-20T17:12:33.137Z,77.32
2023-10-20T17:15:01.290Z,77.57
2023-10-20T17:17:28.167Z,77.61
2023-10-20T17:19:55.674Z,78.10
2023-10-20T17:22:22.530Z,78.76
2023-10-20T17:24:49.242Z,79.15
2023-10-20T17:27:16.116Z,79.17
2023-10-20T17:29:43.119Z,79.49
2023-10-20T17:32:12.614Z,79.75
2023-10-20T17:34:40.590Z,80.09
2023-10-20T17:37:07.385Z,80.00
2023-10-20T17:39:34.365Z,79.57
2023-10-20T17:42:01.292Z,79.76
2023-10-20T17:44:29.309Z,80.39
2023-10-20T17:46:56.181Z,80.41
2023-10-20T17:49:23.293Z,80.72
2023-10-20T17:51:51.111Z,80.51
2023-10-20T17:54:17.885Z,80.16
2023-10-20T17:56:45.065Z,80.02
2023-10-20T17:59:12.409Z,80.31
2023-10-20T18:01:39.239Z,80.59
2023-10-20T18:04:06.568Z,80.70
2023-10-20T18:06:36.117Z,79.59
2023-10-20T18:09:02.996Z,79.55
2023-10-20T18:11:29.727Z,79.90
2023-10-20T18:13:57.305Z,79.85
2023-10-20T18:16:24.372Z,80.46
2023-10-20T18:18:51.729Z,80.73
2023-10-20T18:21:25.525Z,81.49
2023-10-20T18:23:54.328Z,81.96
2023-10-20T18:26:21.372Z,82.08
2023-10-20T18:28:51.282Z,82.29
2023-10-20T18:31:18.248Z,82.42
2023-10-20T18:33:48.207Z,82.87
2023-10-20T18:36:21.109Z,82.83
2023-10-20T18:38:49.318Z,82.92
2023-10-20T18:41:20.189Z,83.26
2023-10-20T18:43:47.772Z,83.76
2023-10-20T18:46:14.929Z,83.95
2023-10-20T18:48:42.391Z,84.31
2023-10-20T18:51:13.417Z,84.30
2023-10-20T18:53:42.514Z,84.37
2023-10-20T18:56:10.248Z,84.50
2023-10-20T18:58:39.107Z,84.58
2023-10-20T19:01:05.903Z,84.84
2023-10-20T19:03:34.874Z,84.86
2023-10-20T19:06:04.403Z,85.12
2023-10-20T19:08:31.255Z,85.16
2023-10-20T19:11:01.097Z,85.45
2023-10-20T19:13:27.751Z,85.35
2023-10-20T19:15:57.115Z,85.99
2023-10-20T19:18:24.129Z,86.55
2023-10-20T19:21:03.039Z,86.71
2023-10-20T19:23:30.193Z,87.00
2023-10-20T19:26:01.903Z,86.97
2023-10-20T19:33:56.841Z,88.33
2023-10-20T19:36:23.647Z,87.85
2023-10-20T19:38:50.398Z,88.23
2023-10-20T19:41:18.508Z,88.61
2023-10-20T19:43:45.600Z,88.90
2023-10-20T19:46:14.771Z,88.63
2023-10-20T19:48:41.743Z,88.90
2023-10-20T19:51:08.634Z,89.28
2023-10-20T19:53:35.387Z,89.35
2023-10-20T19:56:02.182Z,89.64
2023-10-20T19:58:28.993Z,89.60
2023-10-20T20:01:01.724Z,90.26
2023-10-20T20:03:28.642Z,90.78
2023-10-20T20:05:55.574Z,90.72
2023-10-20T20:08:22.340Z,91.14
2023-10-20T20:10:49.003Z,90.95
2023-10-20T20:13:15.721Z,91.56
2023-10-20T20:15:42.475Z,91.54
2023-10-20T20:18:09.307Z,91.75
2023-10-20T20:20:36.106Z,91.75
2023-10-20T20:23:02.814Z,92.43
2023-10-20T20:25:29.478Z,92.67
2023-10-20T20:27:56.169Z,93.10
2023-10-20T20:30:22.903Z,93.30
2023-10-20T20:32:49.665Z,93.60
2023-10-20T20:35:16.470Z,94.05
2023-10-20T20:37:43.259Z,94.25
2023-10-20T20:40:10.229Z,94.18
2023-10-20T20:42:37.007Z,94.72
2023-10-20T20:45:04.494Z,94.85
2023-10-20T20:47:31.579Z,94.97
2023-10-20T20:49:59.450Z,94.59
2023-10-20T20:52:26.137Z,94.76
2023-10-20T20:54:54.413Z,94.82
2023-10-20T20:57:22.634Z,94.68
2023-10-20T20:59:50.023Z,94.65
2023-10-20T21:02:16.819Z,94.86
2023-10-20T21:04:43.995Z,94.89
2023-10-20T21:07:10.844Z,94.75
2023-10-20T21:09:37.540Z,94.56
2023-10-20T21:12:05.549Z,95.11
2023-10-20T21:14:32.260Z,95.37
2023-10-20T21:16:58.970Z,95.54
2023-10-20T21:19:26.121Z,95.74
2023-10-20T21:21:52.872Z,95.81
2023-10-20T21:24:23.407Z,95.80
2023-10-20T21:26:54.681Z,95.79
2023-10-20T21:29:22.171Z,95.79
2023-10-20T21:31:50.700Z,95.67
2023-10-20T21:34:17.450Z,95.89
2023-10-20T21:36:44.140Z,95.04
2023-10-20T21:39:14.117Z,95.46
2023-10-20T21:41:40.964Z,95.90
2023-10-20T21:44:08.195Z,95.58
2023-10-20T21:46:37.464Z,96.10
2023-10-20T21:49:04.361Z,97.32
2023-10-20T21:51:31.109Z,97.38
2023-10-20T21:53:57.859Z,97.11
2023-10-20T21:56:24.920Z,97.12
2023-10-20T21:58:51.672Z,97.38
2023-10-20T22:01:18.988Z,97.00
2023-10-20T22:03:46.996Z,98.08
2023-10-20T22:06:13.966Z,98.22
2023-10-20T22:08:40.719Z,98.30
2023-10-20T22:11:07.437Z,98.08
2023-10-20T22:13:34.127Z,97.89
2023-10-20T22:16:00.795Z,98.53
2023-10-20T22:18:27.616Z,98.50
2023-10-20T22:20:54.490Z,98.73
2023-10-20T22:23:23.462Z,98.87
2023-10-20T22:25:50.488Z,98.91
2023-10-20T22:28:17.168Z,99.05
2023-10-20T22:30:44.008Z,99.55
2023-10-20T22:33:10.916Z,98.60
2023-10-20T22:35:37.776Z,98.38
2023-10-20T22:38:04.497Z,98.79
2023-10-20T22:40:31.202Z,99.53
2023-10-20T22:42:57.955Z,99.14
2023-10-20T22:45:24.733Z,99.13
2023-10-20T22:47:51.527Z,99.52
2023-10-20T22:50:21.375Z,99.54
2023-10-20T22:52:48.951Z,99.53
2023-10-20T22:55:15.736Z,99.68
2023-10-20T22:57:45.674Z,100.00
2023-10-20T23:00:13.137Z,99.35
2023-10-20T23:02:41.216Z,99.50
2023-10-20T23:05:09.371Z,99.34
2023-10-20T23:07:36.405Z,99.85
2023-10-20T23:10:04.914Z,99.84
2023-10-20T23:12:35.807Z,100.00
2023-10-20T23:15:02.982Z,99.77
2023-10-20T23:17:29.697Z,99.82
2023-10-20T23:19:57.935Z,100.00
2023-10-20T23:22:26.314Z,99.98
2023-10-20T23:24:54.251Z,99.65
2023-10-20T23:27:21.030Z,99.75
2023-10-20T23:29:47.929Z,99.93
2023-10-20T23:32:14.695Z,100.00
2023-10-20T23:34:41.347Z,100.00
2023-10-20T23:37:08.964Z,100.00
2023-10-20T23:39:36.955Z,100.00
2023-10-20T23:42:05.274Z,100.00
2023-10-20T23:44:32.633Z,100.00
2023-10-20T23:47:00.692Z,100.00
2023-10-20T23:49:27.836Z,100.00
2023-10-20T23:51:55.016Z,100.00
2023-10-20T23:54:21.834Z,100.00
2023-10-20T23:56:48.624Z,100.00
2023-10-20T23:59:15.352Z,100.00
